createdAt,value
2022-11-19T00:01:32.936Z,-1.18
2022-11-19T00:04:00.428Z,-1.58
2022-11-19T00:06:29.268Z,-1.61
2022-11-19T00:08:56.883Z,-1.44
2022-11-19T00:11:40.395Z,-1.36
2022-11-19T00:14:08.530Z,-1.47
2022-11-19T00:16:36.265Z,-1.90
2022-11-19T00:19:03.963Z,-1.95
2022-11-19T00:21:32.879Z,-1.90
2022-11-19T00:24:00.685Z,-1.64
2022-11-19T00:26:28.220Z,-1.70
2022-11-19T00:28:56.303Z,-1.93
2022-11-19T00:31:25.036Z,-1.77
2022-11-19T00:33:54.233Z,-1.76
2022-11-19T00:36:23.097Z,-2.03
2022-11-19T00:38:52.058Z,-2.24
2022-11-19T00:41:20.597Z,-2.26
2022-11-19T00:43:48.356Z,-2.44
2022-11-19T00:46:17.703Z,-2.46
2022-11-19T00:48:45.294Z,-2.13
2022-11-19T00:51:13.178Z,-2.08
2022-11-19T00:53:40.649Z,-2.20
2022-11-19T00:56:11.441Z,-2.06
2022-11-19T00:58:39.641Z,-1.87
2022-11-19T01:01:07.764Z,-2.06
2022-11-19T01:03:36.070Z,-1.97
2022-11-19T01:06:04.335Z,-2.26
2022-11-19T01:08:31.929Z,-2.13
2022-11-19T01:11:05.282Z,-2.07
2022-11-19T01:13:37.606Z,-2.21
2022-11-19T01:16:08.283Z,-2.41
2022-11-19T01:18:36.946Z,-2.34
2022-11-19T01:21:05.061Z,-2.64
2022-11-19T01:23:33.387Z,-2.65
2022-11-19T01:26:01.041Z,-2.86
2022-11-19T01:28:28.568Z,-2.76
2022-11-19T01:30:57.547Z,-2.70
2022-11-19T01:33:25.361Z,-3.00
2022-11-19T01:35:57.376Z,-3.16
2022-11-19T01:38:25.243Z,-3.22
2022-11-19T01:40:53.279Z,-3.02
2022-11-19T01:43:20.845Z,-2.79
2022-11-19T01:45:50.028Z,-2.78
2022-11-19T01:48:24.158Z,-2.64
2022-11-19T01:50:55.985Z,-2.49
2022-11-19T01:53:27.726Z,-2.87
2022-11-19T01:55:56.062Z,-3.06
2022-11-19T01:58:25.954Z,-2.95
2022-11-19T02:00:53.551Z,-2.78
2022-11-19T02:03:22.566Z,-2.82
2022-11-19T02:05:50.673Z,-3.24
2022-11-19T02:08:37.449Z,-2.86
2022-11-19T02:11:31.709Z,-3.10
2022-11-19T02:14:11.432Z,-2.97
2022-11-19T02:16:47.366Z,-2.86
2022-11-19T02:19:38.253Z,-2.91
2022-11-19T02:22:18.194Z,-2.88
2022-11-19T02:24:53.526Z,-2.80
2022-11-19T02:27:39.567Z,-2.65
2022-11-19T02:30:11.673Z,-2.71
2022-11-19T02:32:51.183Z,-2.67
2022-11-19T02:35:27.305Z,-2.93
2022-11-19T02:38:00.804Z,-3.16
2022-11-19T02:40:32.215Z,-3.45
2022-11-19T02:43:08.884Z,-3.31
2022-11-19T02:45:41.235Z,-3.08
2022-11-19T02:48:13.836Z,-3.26
2022-11-19T02:50:45.837Z,-3.52
2022-11-19T02:53:13.380Z,-3.75
2022-11-19T02:56:02.235Z,-3.79
2022-11-19T02:58:49.443Z,-3.86
2022-11-19T03:01:37.970Z,-3.91
2022-11-19T03:04:23.743Z,-3.62
2022-11-19T03:06:51.403Z,-3.79
2022-11-19T03:09:19.946Z,-3.86
2022-11-19T03:11:54.700Z,-3.86
2022-11-19T03:14:44.510Z,-3.75
2022-11-19T03:17:18.227Z,-3.47
2022-11-19T03:19:49.794Z,-3.42
2022-11-19T03:22:22.599Z,-3.42
2022-11-19T03:24:56.760Z,-3.44
2022-11-19T03:27:28.812Z,-3.64
2022-11-19T03:30:00.245Z,-3.54
2022-11-19T03:32:33.452Z,-3.47
2022-11-19T03:35:04.375Z,-3.70
2022-11-19T03:37:34.922Z,-3.88
2022-11-19T03:40:03.948Z,-3.35
2022-11-19T03:42:32.362Z,-3.32
2022-11-19T03:45:04.647Z,-3.25
2022-11-19T03:47:36.668Z,-3.27
2022-11-19T03:50:10.587Z,-3.59
2022-11-19T03:52:38.090Z,-3.53
2022-11-19T03:55:06.210Z,-3.99
2022-11-19T03:57:34.333Z,-3.73
2022-11-19T04:00:01.846Z,-3.76
2022-11-19T04:02:29.458Z,-4.03
2022-11-19T04:04:58.253Z,-4.05
2022-11-19T04:07:25.925Z,-3.89
2022-11-19T04:09:53.420Z,-3.77
2022-11-19T04:12:23.039Z,-3.69
2022-11-19T04:14:51.180Z,-4.13
2022-11-19T04:17:20.328Z,-3.98
2022-11-19T04:19:47.991Z,-3.94
2022-11-19T04:22:16.790Z,-4.27
2022-11-19T04:24:44.265Z,-4.11
2022-11-19T04:27:11.749Z,-4.00
2022-11-19T04:29:39.256Z,-3.92
2022-11-19T04:32:06.946Z,-4.01
2022-11-19T04:34:34.421Z,-4.15
2022-11-19T04:37:01.984Z,-4.06
2022-11-19T04:39:30.790Z,-4.34
2022-11-19T04:41:58.280Z,-4.37
2022-11-19T04:44:25.772Z,-4.28
2022-11-19T04:46:56.810Z,-4.16
2022-11-19T04:49:24.325Z,-4.20
2022-11-19T04:51:51.944Z,-4.26
2022-11-19T04:54:19.423Z,-4.18
2022-11-19T04:56:48.267Z,-4.50
2022-11-19T04:59:15.743Z,-4.36
2022-11-19T05:01:43.267Z,-4.43
2022-11-19T05:04:10.865Z,-4.69
2022-11-19T05:06:39.391Z,-4.73
2022-11-19T05:09:06.965Z,-4.79
2022-11-19T05:11:34.439Z,-4.84
2022-11-19T05:14:03.457Z,-4.61
2022-11-19T05:16:30.919Z,-4.68
2022-11-19T05:18:58.410Z,-4.55
2022-11-19T05:21:25.919Z,-4.55
2022-11-19T05:23:53.412Z,-4.46
2022-11-19T05:26:21.117Z,-4.49
2022-11-19T05:28:48.611Z,-4.65
2022-11-19T05:31:17.563Z,-4.51
2022-11-19T05:33:45.095Z,-4.55
2022-11-19T05:36:12.715Z,-4.52
2022-11-19T05:38:41.071Z,-4.46
2022-11-19T05:41:08.548Z,-4.49
2022-11-19T05:43:36.033Z,-4.71
2022-11-19T05:46:03.925Z,-4.89
2022-11-19T05:48:32.738Z,-4.90
2022-11-19T05:51:00.247Z,-4.82
2022-11-19T05:53:27.839Z,-4.73
2022-11-19T05:55:55.321Z,-4.66
2022-11-19T05:58:22.840Z,-4.94
2022-11-19T06:00:55.807Z,-4.87
2022-11-19T06:03:23.391Z,-4.83
2022-11-19T06:05:52.324Z,-4.93
2022-11-19T06:08:19.930Z,-4.72
2022-11-19T06:10:47.411Z,-4.61
2022-11-19T06:13:14.884Z,-4.84
2022-11-19T06:15:42.351Z,-5.00
2022-11-19T06:18:09.871Z,-4.81
2022-11-19T06:20:37.603Z,-4.94
2022-11-19T06:23:06.412Z,-5.17
2022-11-19T06:25:33.910Z,-5.26
2022-11-19T06:28:01.348Z,-5.06
2022-11-19T06:30:28.847Z,-5.09
2022-11-19T06:32:56.296Z,-5.04
2022-11-19T06:35:23.825Z,-4.81
2022-11-19T06:37:51.265Z,-4.75
2022-11-19T06:40:20.090Z,-4.88
2022-11-19T06:42:50.923Z,-4.99
2022-11-19T06:45:18.645Z,-5.18
2022-11-19T06:47:48.458Z,-5.19
2022-11-19T06:50:16.103Z,-5.06
2022-11-19T06:52:43.607Z,-4.96
2022-11-19T06:55:11.162Z,-4.82
2022-11-19T06:57:39.987Z,-4.68
2022-11-19T07:00:08.560Z,-4.55
2022-11-19T07:02:36.044Z,-4.42
2022-11-19T07:05:03.546Z,-4.19
2022-11-19T07:07:31.068Z,-4.07
2022-11-19T07:09:58.711Z,-4.13
2022-11-19T07:12:26.277Z,-4.19
2022-11-19T07:14:57.506Z,-4.14
2022-11-19T07:17:28.705Z,-4.02
2022-11-19T07:19:56.165Z,-3.93
2022-11-19T07:22:23.611Z,-3.84
2022-11-19T07:24:51.137Z,-3.46
2022-11-19T07:27:18.630Z,-3.38
2022-11-19T07:29:46.083Z,-3.31
2022-11-19T07:32:14.900Z,-3.29
2022-11-19T07:34:42.442Z,-3.12
2022-11-19T07:37:10.127Z,-2.98
2022-11-19T07:39:37.569Z,-2.91
2022-11-19T07:42:24.723Z,-2.87
2022-11-19T07:44:54.805Z,-2.72
2022-11-19T07:47:24.043Z,-2.74
2022-11-19T07:49:51.496Z,-2.69
2022-11-19T07:52:19.029Z,-2.56
2022-11-19T07:54:46.514Z,-2.41
2022-11-19T07:57:14.107Z,-2.26
2022-11-19T07:59:41.583Z,-2.34
2022-11-19T08:02:11.755Z,-2.29
2022-11-19T08:04:40.884Z,-2.45
2022-11-19T08:07:09.159Z,-2.28
2022-11-19T08:09:37.514Z,-2.14
2022-11-19T08:12:05.402Z,-2.12
2022-11-19T08:14:32.897Z,-2.12
2022-11-19T08:17:17.944Z,-1.81
2022-11-19T08:19:46.785Z,-1.75
2022-11-19T08:22:14.592Z,-1.75
2022-11-19T08:24:42.087Z,-1.73
2022-11-19T08:27:09.615Z,-1.66
2022-11-19T08:29:37.090Z,-1.71
2022-11-19T08:32:04.835Z,-1.62
2022-11-19T08:34:32.979Z,-1.49
2022-11-19T08:37:01.816Z,-1.50
2022-11-19T08:39:29.611Z,-1.49
2022-11-19T08:42:14.596Z,-1.32
2022-11-19T08:44:42.088Z,-1.15
2022-11-19T08:47:09.576Z,-1.20
2022-11-19T08:49:37.082Z,-1.27
2022-11-19T08:52:05.896Z,-1.06
2022-11-19T08:54:33.446Z,-0.95
2022-11-19T08:57:00.948Z,-0.86
2022-11-19T08:59:28.412Z,-0.83
2022-11-19T09:01:55.883Z,-0.81
2022-11-19T09:04:23.383Z,-0.75
2022-11-19T09:06:50.883Z,-0.65
2022-11-19T09:09:19.971Z,-0.40
2022-11-19T09:11:47.421Z,-0.43
2022-11-19T09:14:14.917Z,-0.19
2022-11-19T09:16:42.465Z,-0.13
2022-11-19T09:19:09.922Z,-0.26
2022-11-19T09:21:37.441Z,0.00
2022-11-19T09:24:05.608Z,0.17
2022-11-19T09:26:34.424Z,0.16
2022-11-19T09:29:02.737Z,0.37
2022-11-19T09:31:30.330Z,0.17
2022-11-19T09:33:57.854Z,0.35
2022-11-19T09:36:25.374Z,0.23
2022-11-19T09:38:57.570Z,0.35
2022-11-19T09:41:45.000Z,0.46
2022-11-19T09:44:29.333Z,0.08
2022-11-19T09:47:04.441Z,0.38
2022-11-19T09:49:38.550Z,0.04
2022-11-19T09:52:07.739Z,0.34
2022-11-19T09:54:35.990Z,0.61
2022-11-19T09:57:14.659Z,0.51
2022-11-19T09:59:42.726Z,0.37
2022-11-19T10:02:17.151Z,0.33
2022-11-19T10:04:45.644Z,0.10
2022-11-19T10:07:23.306Z,0.06
2022-11-19T10:09:59.909Z,0.41
2022-11-19T10:12:47.740Z,0.74
2022-11-19T10:15:25.078Z,0.98
2022-11-19T10:18:04.047Z,1.16
2022-11-19T10:20:59.645Z,1.30
2022-11-19T10:23:36.485Z,1.31
2022-11-19T10:26:09.674Z,1.36
2022-11-19T10:28:40.607Z,1.49
2022-11-19T10:31:14.540Z,1.57
2022-11-19T10:33:50.625Z,1.74
2022-11-19T10:36:23.607Z,1.88
2022-11-19T10:38:58.153Z,1.96
2022-11-19T10:41:36.781Z,1.90
2022-11-19T10:44:37.374Z,1.92
2022-11-19T10:47:06.282Z,1.97
2022-11-19T10:49:39.985Z,2.03
2022-11-19T10:52:12.439Z,2.11
2022-11-19T10:54:40.797Z,2.30
2022-11-19T10:57:16.096Z,2.39
2022-11-19T10:59:46.167Z,2.28
2022-11-19T11:02:28.194Z,2.22
2022-11-19T11:05:06.409Z,2.31
2022-11-19T11:07:50.476Z,2.38
2022-11-19T11:10:45.395Z,2.34
2022-11-19T11:13:37.736Z,2.08
2022-11-19T11:16:09.229Z,1.75
2022-11-19T11:18:40.462Z,1.65
2022-11-19T11:21:11.974Z,1.63
2022-11-19T11:23:50.841Z,1.02
2022-11-19T11:26:24.026Z,1.41
2022-11-19T11:28:57.896Z,1.53
2022-11-19T11:31:35.446Z,2.00
2022-11-19T11:34:04.111Z,1.87
2022-11-19T11:36:35.098Z,2.13
2022-11-19T11:39:04.809Z,2.06
2022-11-19T11:42:05.453Z,2.31
2022-11-19T11:44:28.536Z,2.31
2022-11-19T11:46:59.034Z,2.26
2022-11-19T11:49:33.387Z,2.38
2022-11-19T11:52:14.197Z,2.43
2022-11-19T11:54:55.222Z,2.05
2022-11-19T11:57:27.589Z,2.29
2022-11-19T11:59:55.434Z,2.33
2022-11-19T12:02:30.181Z,2.19
2022-11-19T12:05:02.033Z,2.21
2022-11-19T12:07:54.558Z,2.24
2022-11-19T12:10:28.172Z,2.02
2022-11-19T12:13:17.306Z,2.17
2022-11-19T12:15:55.965Z,2.15
2022-11-19T12:18:33.106Z,1.87
2022-11-19T12:21:10.263Z,1.79
2022-11-19T12:23:57.544Z,1.49
2022-11-19T12:26:34.656Z,1.68
2022-11-19T12:29:13.723Z,1.40
2022-11-19T12:31:56.834Z,1.65
2022-11-19T12:34:46.219Z,1.74
2022-11-19T12:37:26.128Z,1.78
2022-11-19T12:39:56.786Z,1.74
2022-11-19T12:42:36.736Z,1.85
2022-11-19T12:45:17.595Z,1.82
2022-11-19T12:48:10.695Z,1.84
2022-11-19T12:50:49.527Z,1.52
2022-11-19T12:53:30.868Z,1.62
2022-11-19T12:56:13.523Z,1.68
2022-11-19T12:58:49.222Z,1.63
2022-11-19T13:01:21.660Z,1.65
2022-11-19T13:04:02.357Z,1.53
2022-11-19T13:06:36.917Z,1.59
2022-11-19T13:09:08.330Z,1.29
2022-11-19T13:11:39.256Z,1.23
2022-11-19T13:14:13.940Z,1.16
2022-11-19T13:16:42.862Z,1.20
2022-11-19T13:19:22.540Z,1.35
2022-11-19T13:21:56.971Z,1.32
2022-11-19T13:24:32.852Z,1.39
2022-11-19T13:27:04.776Z,1.32
2022-11-19T13:29:42.176Z,1.31
2022-11-19T13:32:19.901Z,1.22
2022-11-19T13:34:58.538Z,1.21
2022-11-19T13:37:41.766Z,1.24
2022-11-19T13:40:20.588Z,1.25
2022-11-19T13:43:25.410Z,1.19
2022-11-19T13:46:02.813Z,1.21
2022-11-19T13:48:34.131Z,1.21
2022-11-19T13:51:09.623Z,1.12
2022-11-19T13:53:43.541Z,1.16
2022-11-19T13:56:15.351Z,1.21
2022-11-19T13:58:47.561Z,1.17
2022-11-19T14:01:39.391Z,1.15
2022-11-19T14:04:24.729Z,0.98
2022-11-19T14:07:13.908Z,1.04
2022-11-19T14:09:56.314Z,0.94
2022-11-19T14:12:43.372Z,0.83
2022-11-19T14:15:46.696Z,0.46
2022-11-19T14:18:42.756Z,0.41
2022-11-19T14:22:16.553Z,0.38
2022-11-19T14:25:13.739Z,0.23
2022-11-19T14:27:41.410Z,0.18
2022-11-19T14:30:15.446Z,0.11
2022-11-19T14:32:47.392Z,0.07
2022-11-19T14:35:22.762Z,-0.03
2022-11-19T14:37:52.793Z,-0.06
2022-11-19T14:40:24.947Z,-0.12
2022-11-19T14:43:41.598Z,-0.15
2022-11-19T14:46:27.553Z,-0.19
2022-11-19T14:49:03.598Z,-0.29
2022-11-19T14:51:35.786Z,-0.25
2022-11-19T14:54:08.724Z,-0.33
2022-11-19T14:56:38.758Z,-0.38
2022-11-19T14:59:18.001Z,-0.37
2022-11-19T15:01:57.377Z,-0.50
2022-11-19T15:04:30.314Z,-0.55
2022-11-19T15:06:58.246Z,-0.54
2022-11-19T15:10:05.325Z,-0.57
2022-11-19T15:12:48.407Z,-0.74
2022-11-19T15:15:38.526Z,-0.94
2022-11-19T15:18:39.547Z,-0.86
2022-11-19T15:21:27.640Z,-0.99
2022-11-19T15:24:11.662Z,-1.06
2022-11-19T15:26:50.496Z,-1.19
2022-11-19T16:07:48.671Z,22.68
2022-11-19T16:10:22.841Z,20.83
2022-11-19T16:13:14.990Z,20.97
2022-11-19T16:16:08.149Z,20.35
2022-11-19T16:18:46.985Z,20.16
2022-11-19T16:21:18.153Z,20.07
2022-11-19T16:24:01.099Z,20.04
2022-11-19T16:26:28.947Z,20.01
2022-11-19T16:28:56.567Z,20.00
2022-11-19T16:31:30.370Z,19.97
2022-11-19T16:33:58.959Z,19.95
2022-11-19T16:36:29.761Z,19.99
2022-11-19T16:38:59.626Z,20.07
2022-11-19T16:41:45.080Z,20.25
2022-11-19T16:44:16.642Z,20.21
2022-11-19T16:46:44.163Z,20.17
2022-11-19T16:49:29.673Z,20.14
2022-11-19T16:51:57.925Z,20.07
2022-11-19T16:54:47.403Z,20.06
2022-11-19T16:57:18.148Z,20.04
2022-11-19T16:59:48.258Z,20.05
2022-11-19T17:02:18.458Z,20.06
2022-11-19T17:04:49.863Z,20.05
2022-11-19T17:07:24.313Z,20.09
2022-11-19T17:10:09.606Z,20.12
2022-11-19T17:12:38.454Z,20.15
2022-11-19T17:15:33.729Z,20.22
2022-11-19T17:18:14.776Z,20.28
2022-11-19T17:21:02.550Z,20.54
2022-11-19T17:23:32.254Z,20.50
2022-11-19T17:26:03.467Z,20.48
2022-11-19T17:28:38.115Z,20.43
2022-11-19T17:31:14.634Z,20.39
2022-11-19T17:33:50.910Z,20.35
2022-11-19T17:36:19.050Z,20.30
2022-11-19T17:38:46.668Z,20.30
2022-11-19T17:41:39.647Z,20.27
2022-11-19T17:44:30.631Z,20.26
2022-11-19T17:46:58.143Z,20.25
2022-11-19T17:49:25.955Z,20.24
2022-11-19T17:51:55.245Z,20.35
2022-11-19T17:54:23.086Z,20.32
2022-11-19T17:56:52.656Z,20.24
2022-11-19T17:59:20.252Z,20.17
2022-11-19T18:01:47.798Z,20.12
2022-11-19T18:04:15.414Z,20.16
2022-11-19T18:06:43.189Z,20.10
2022-11-19T18:09:10.641Z,20.09
2022-11-19T18:11:39.818Z,20.09
2022-11-19T18:14:09.980Z,20.07
2022-11-19T18:16:40.092Z,20.04
2022-11-19T18:19:11.678Z,20.04
2022-11-19T18:21:43.901Z,20.06
2022-11-19T18:24:12.395Z,20.02
2022-11-19T18:26:39.895Z,20.02
2022-11-19T18:29:08.721Z,20.01
2022-11-19T18:31:42.647Z,20.00
2022-11-19T18:34:14.239Z,19.98
2022-11-19T18:36:41.707Z,19.99
2022-11-19T18:39:09.209Z,19.98
2022-11-19T18:41:36.914Z,20.03
2022-11-19T18:44:22.054Z,19.99
2022-11-19T18:46:50.873Z,19.97
2022-11-19T18:49:18.588Z,19.98
2022-11-19T18:51:47.625Z,19.96
2022-11-19T18:54:15.364Z,19.95
2022-11-19T18:56:43.185Z,19.95
2022-11-19T18:59:11.966Z,19.93
2022-11-19T19:01:39.912Z,19.93
2022-11-19T19:04:10.903Z,19.92
2022-11-19T19:06:38.533Z,19.91
2022-11-19T19:09:06.147Z,19.90
2022-11-19T19:11:51.754Z,19.88
2022-11-19T19:14:19.804Z,19.89
2022-11-19T19:16:47.663Z,19.87
2022-11-19T19:19:19.233Z,19.87
2022-11-19T19:21:47.004Z,19.86
2022-11-19T19:24:14.744Z,19.86
2022-11-19T19:26:42.418Z,19.85
2022-11-19T19:29:13.305Z,19.85
2022-11-19T19:31:40.799Z,19.81
2022-11-19T19:34:08.282Z,19.81
2022-11-19T19:36:37.271Z,19.80
2022-11-19T19:39:05.162Z,19.80
2022-11-19T19:41:40.750Z,19.78
2022-11-19T19:44:10.275Z,19.77
2022-11-19T19:46:37.733Z,19.77
2022-11-19T19:49:05.373Z,19.76
2022-11-19T19:51:33.121Z,19.75
2022-11-19T19:54:02.096Z,19.74
2022-11-19T19:56:31.550Z,19.74
2022-11-19T19:58:59.829Z,19.71
2022-11-19T20:01:28.965Z,19.71
2022-11-19T20:04:01.332Z,19.70
2022-11-19T20:06:29.206Z,19.70
2022-11-19T20:08:56.885Z,19.68
2022-11-19T20:11:26.695Z,19.68
2022-11-19T20:13:55.983Z,19.68
2022-11-19T20:16:24.959Z,19.67
2022-11-19T20:18:53.849Z,19.67
2022-11-19T20:21:23.759Z,19.67
2022-11-19T20:23:51.510Z,19.67
2022-11-19T20:26:20.990Z,19.66
2022-11-19T20:28:55.518Z,19.67
2022-11-19T20:31:23.432Z,19.70
2022-11-19T20:33:53.838Z,19.71
2022-11-19T20:36:23.139Z,19.74
2022-11-19T20:38:52.212Z,19.73
2022-11-19T20:41:38.368Z,19.71
2022-11-19T20:44:24.043Z,19.70
2022-11-19T20:46:53.550Z,19.71
2022-11-19T20:49:23.360Z,19.72
2022-11-19T20:51:52.537Z,19.72
2022-11-19T20:54:21.324Z,19.72
2022-11-19T20:56:49.426Z,19.70
2022-11-19T20:59:18.748Z,19.70
2022-11-19T21:01:48.211Z,19.70
2022-11-19T21:04:15.898Z,19.69
2022-11-19T21:06:43.530Z,19.69
2022-11-19T21:09:11.011Z,19.68
2022-11-19T21:11:38.515Z,19.67
2022-11-19T21:14:06.127Z,19.68
2022-11-19T21:16:35.234Z,19.67
2022-11-19T21:19:03.290Z,19.66
2022-11-19T21:21:30.742Z,19.66
2022-11-19T21:23:58.223Z,19.64
2022-11-19T21:26:27.459Z,19.63
2022-11-19T21:28:57.069Z,19.63
2022-11-19T21:31:37.781Z,19.62
2022-11-19T21:34:07.666Z,19.63
2022-11-19T21:36:35.231Z,19.63
2022-11-19T21:39:03.292Z,19.63
2022-11-19T21:41:30.757Z,19.62
2022-11-19T21:43:58.239Z,19.62
2022-11-19T21:46:25.691Z,19.62
2022-11-19T21:48:53.260Z,19.61
2022-11-19T21:51:24.893Z,19.60
2022-11-19T21:53:54.786Z,19.59
2022-11-19T21:56:22.517Z,19.61
2022-11-19T21:58:49.971Z,19.59
2022-11-19T22:01:18.005Z,19.58
2022-11-19T22:03:45.609Z,19.59
2022-11-19T22:06:13.161Z,19.59
2022-11-19T22:08:43.098Z,19.56
2022-11-19T22:11:30.181Z,19.56
2022-11-19T22:14:00.164Z,19.57
2022-11-19T22:16:27.999Z,19.55
2022-11-19T22:18:55.795Z,19.56
2022-11-19T22:21:23.275Z,19.55
2022-11-19T22:23:52.652Z,19.55
2022-11-19T22:26:20.149Z,19.54
2022-11-19T22:28:47.827Z,19.55
2022-11-19T22:31:15.683Z,19.56
2022-11-19T22:33:43.313Z,19.53
2022-11-19T22:36:11.966Z,20.00
2022-11-19T22:38:40.296Z,20.06
2022-11-19T22:41:11.396Z,19.84
2022-11-19T22:43:40.052Z,19.73
2022-11-19T22:46:08.825Z,19.66
2022-11-19T22:48:40.523Z,19.62
2022-11-19T22:51:09.561Z,19.58
2022-11-19T22:53:37.698Z,19.57
2022-11-19T22:56:07.301Z,19.54
2022-11-19T22:58:36.828Z,19.53
2022-11-19T23:01:05.131Z,19.52
2022-11-19T23:03:32.641Z,19.50
2022-11-19T23:06:00.173Z,19.49
2022-11-19T23:08:27.819Z,19.49
2022-11-19T23:10:59.926Z,19.48
2022-11-19T23:13:32.495Z,19.48
2022-11-19T23:16:06.490Z,19.46
2022-11-19T23:18:36.054Z,19.47
2022-11-19T23:21:05.558Z,19.46
2022-11-19T23:23:33.040Z,19.45
2022-11-19T23:26:02.367Z,19.45
2022-11-19T23:28:31.895Z,19.44
2022-11-19T23:31:04.970Z,19.44
2022-11-19T23:33:32.456Z,19.43
2022-11-19T23:36:04.372Z,19.42
2022-11-19T23:38:32.156Z,19.42
2022-11-19T23:41:00.323Z,19.41
2022-11-19T23:43:28.172Z,19.42
2022-11-19T23:45:56.106Z,19.40
2022-11-19T23:48:24.933Z,19.39
2022-11-19T23:50:52.476Z,19.40
2022-11-19T23:53:20.004Z,19.39
2022-11-19T23:55:48.278Z,19.40
2022-11-19T23:58:15.731Z,19.39
